createdAt,value
2022-10-25T00:00:28.738Z,98670.31
2022-10-25T00:03:15.470Z,98673.53
2022-10-25T00:05:42.529Z,98673.53
2022-10-25T00:08:09.410Z,98676.25
2022-10-25T00:10:36.411Z,98687.25
2022-10-25T00:13:03.178Z,98681.13
2022-10-25T00:15:30.141Z,98683.13
2022-10-25T00:17:56.975Z,98679.41
2022-10-25T00:20:23.987Z,98678.72
2022-10-25T00:22:50.763Z,98673.44
2022-10-25T00:25:17.842Z,98679.72
2022-10-25T00:27:44.610Z,98680.88
2022-10-25T00:30:12.272Z,98671.16
2022-10-25T00:32:39.038Z,98675.06
2022-10-25T00:35:06.301Z,98684.88
2022-10-25T00:37:33.124Z,98681.63
2022-10-25T00:40:00.149Z,98674.31
2022-10-25T00:42:26.982Z,98673.63
2022-10-25T00:44:56.497Z,98680.94
2022-10-25T00:47:52.696Z,98677.34
2022-10-25T00:50:34.098Z,98672.38
2022-10-25T00:53:12.690Z,98671.50
2022-10-25T00:55:42.088Z,98673.66
2022-10-25T00:58:11.485Z,98679.25
2022-10-25T01:00:38.578Z,98682.69
2022-10-25T01:03:05.346Z,98677.41
2022-10-25T01:05:33.686Z,98675.53
2022-10-25T01:08:00.433Z,98671.09
2022-10-25T01:10:27.463Z,98671.41
2022-10-25T01:12:54.596Z,98675.13
2022-10-25T01:15:23.191Z,98677.31
2022-10-25T01:17:49.969Z,98666.28
2022-10-25T01:20:23.190Z,98682.59
2022-10-25T01:23:11.920Z,98677.44
2022-10-25T01:25:47.980Z,98677.31
2022-10-25T01:28:29.754Z,98665.13
2022-10-25T01:30:59.709Z,98667.00
2022-10-25T01:33:28.049Z,98663.88
2022-10-25T01:36:06.771Z,98656.03
2022-10-25T01:38:44.480Z,98667.44
2022-10-25T01:41:34.861Z,98660.31
2022-10-25T01:44:30.364Z,98651.91
2022-10-25T01:47:15.573Z,98661.59
2022-10-25T01:49:42.617Z,98666.19
2022-10-25T01:52:09.453Z,98664.06
2022-10-25T01:54:36.496Z,98668.66
2022-10-25T01:57:13.932Z,98663.06
2022-10-25T01:59:55.912Z,98669.94
2022-10-25T02:02:41.064Z,98674.38
2022-10-25T02:05:21.700Z,98675.09
2022-10-25T02:08:25.383Z,98683.81
2022-10-25T02:11:05.696Z,98667.28
2022-10-25T02:13:38.504Z,98665.25
2022-10-25T02:16:12.547Z,98664.41
2022-10-25T02:18:41.649Z,98669.44
2022-10-25T02:21:08.644Z,98673.81
2022-10-25T02:23:35.739Z,98669.44
2022-10-25T02:26:04.072Z,98670.69
2022-10-25T02:28:30.884Z,98674.13
2022-10-25T02:30:59.308Z,98675.44
2022-10-25T02:33:26.060Z,98674.59
2022-10-25T02:36:25.651Z,98677.28
2022-10-25T02:38:52.902Z,98670.16
2022-10-25T02:41:20.443Z,98670.44
2022-10-25T02:43:47.235Z,98662.44
2022-10-25T02:46:16.151Z,98667.88
2022-10-25T02:48:42.979Z,98666.47
2022-10-25T02:51:10.220Z,98670.75
2022-10-25T02:53:36.933Z,98676.16
2022-10-25T02:56:11.962Z,98685.19
2022-10-25T02:58:40.283Z,98681.59
2022-10-25T03:01:07.717Z,98672.03
2022-10-25T03:03:34.667Z,98673.78
2022-10-25T03:06:01.695Z,98686.31
2022-10-25T03:11:01.022Z,98680.19
2022-10-25T03:13:27.778Z,98688.59
2022-10-25T03:15:54.772Z,98686.03
2022-10-25T03:18:22.451Z,98692.63
2022-10-25T03:20:49.642Z,98693.47
2022-10-25T03:23:16.515Z,98687.47
2022-10-25T03:25:43.590Z,98698.19
2022-10-25T03:28:10.339Z,98692.63
2022-10-25T03:30:37.412Z,98695.75
2022-10-25T03:33:04.246Z,98693.88
2022-10-25T03:35:31.234Z,98694.91
2022-10-25T03:37:58.006Z,98685.63
2022-10-25T03:40:25.002Z,98698.59
2022-10-25T03:42:51.746Z,98703.88
2022-10-25T03:45:19.966Z,98697.75
2022-10-25T03:47:47.109Z,98700.47
2022-10-25T03:50:14.542Z,98697.63
2022-10-25T03:52:41.382Z,98702.31
2022-10-25T03:55:08.850Z,98702.44
2022-10-25T03:57:35.667Z,98694.63
2022-10-25T04:00:03.527Z,98697.34
2022-10-25T04:02:30.290Z,98690.19
2022-10-25T04:04:57.325Z,98690.19
2022-10-25T04:07:24.075Z,98693.59
2022-10-25T04:09:51.038Z,98704.72
2022-10-25T04:12:17.813Z,98701.88
2022-10-25T04:14:44.817Z,98692.63
2022-10-25T04:17:11.630Z,98694.78
2022-10-25T04:19:38.662Z,98691.91
2022-10-25T04:22:05.518Z,98691.78
2022-10-25T04:24:32.652Z,98688.47
2022-10-25T04:26:59.502Z,98684.22
2022-10-25T04:29:26.593Z,98684.34
2022-10-25T04:31:53.359Z,98696.03
2022-10-25T04:34:20.343Z,98689.63
2022-10-25T04:36:47.142Z,98699.44
2022-10-25T04:39:14.137Z,98695.75
2022-10-25T04:41:40.962Z,98696.59
2022-10-25T04:44:07.989Z,98690.19
2022-10-25T04:46:34.990Z,98700.19
2022-10-25T04:49:02.053Z,98692.75
2022-10-25T04:51:28.869Z,98697.19
2022-10-25T04:53:56.062Z,98697.75
2022-10-25T04:56:22.877Z,98684.50
2022-10-25T04:58:49.876Z,98689.50
2022-10-25T05:01:17.347Z,98685.34
2022-10-25T05:03:44.585Z,98686.50
2022-10-25T05:06:15.887Z,98692.63
2022-10-25T05:08:45.291Z,98693.03
2022-10-25T05:11:12.577Z,98694.75
2022-10-25T05:13:39.906Z,98698.59
2022-10-25T05:16:06.982Z,98698.59
2022-10-25T05:18:34.473Z,98701.44
2022-10-25T05:21:04.176Z,98710.75
2022-10-25T05:23:31.677Z,98716.88
2022-10-25T05:26:05.957Z,98719.00
2022-10-25T05:28:33.614Z,98725.28
2022-10-25T05:31:04.868Z,98725.56
2022-10-25T05:33:32.196Z,98718.72
2022-10-25T05:36:00.424Z,98716.00
2022-10-25T05:38:28.794Z,98712.47
2022-10-25T05:40:56.764Z,98712.31
2022-10-25T05:43:23.997Z,98709.84
2022-10-25T05:45:50.837Z,98714.41
2022-10-25T05:48:18.829Z,98712.69
2022-10-25T05:50:46.223Z,98726.09
2022-10-25T05:53:13.200Z,98724.53
2022-10-25T05:55:40.024Z,98739.94
2022-10-25T05:58:06.976Z,98746.34
2022-10-25T06:00:33.880Z,98748.19
2022-10-25T06:03:01.924Z,98748.06
2022-10-25T06:05:28.748Z,98749.78
2022-10-25T06:07:55.837Z,98761.88
2022-10-25T06:10:22.617Z,98767.44
2022-10-25T06:12:49.789Z,98767.31
2022-10-25T06:15:16.744Z,98769.75
2022-10-25T06:17:43.721Z,98779.00
2022-10-25T06:20:10.997Z,98782.44
2022-10-25T06:22:38.079Z,98794.13
2022-10-25T06:25:05.251Z,98791.28
2022-10-25T06:27:32.374Z,98797.69
2022-10-25T06:29:59.184Z,98798.09
2022-10-25T06:32:26.201Z,98799.81
2022-10-25T06:34:52.956Z,98790.56
2022-10-25T06:37:19.956Z,98786.00
2022-10-25T06:39:46.716Z,98791.81
2022-10-25T06:42:13.680Z,98801.41
2022-10-25T06:44:40.468Z,98797.97
2022-10-25T06:47:22.904Z,98803.09
2022-10-25T06:49:49.711Z,98803.09
2022-10-25T06:52:16.729Z,98802.13
2022-10-25T06:54:43.554Z,98804.69
2022-10-25T06:57:10.522Z,98806.53
2022-10-25T06:59:37.324Z,98804.59
2022-10-25T07:02:04.663Z,98809.22
2022-10-25T07:04:32.552Z,98806.38
2022-10-25T07:06:59.552Z,98806.28
2022-10-25T07:09:26.429Z,98809.09
2022-10-25T07:11:53.713Z,98805.31
2022-10-25T07:14:20.828Z,98815.28
2022-10-25T07:16:47.884Z,98815.00
2022-10-25T07:19:14.636Z,98820.41
2022-10-25T07:21:42.524Z,98823.28
2022-10-25T07:24:11.189Z,98829.41
2022-10-25T07:26:38.326Z,98836.53
2022-10-25T07:29:05.165Z,98847.09
2022-10-25T07:31:33.915Z,98847.94
2022-10-25T07:34:01.357Z,98846.13
2022-10-25T07:36:28.492Z,98843.28
2022-10-25T07:38:57.011Z,98853.38
2022-10-25T07:41:24.711Z,98852.38
2022-10-25T07:43:51.851Z,98852.38
2022-10-25T07:46:18.899Z,98854.81
2022-10-25T07:48:45.730Z,98853.09
2022-10-25T07:51:14.376Z,98853.84
2022-10-25T07:53:41.341Z,98848.41
2022-10-25T07:56:12.645Z,98842.81
2022-10-25T07:58:39.479Z,98847.13
2022-10-25T08:01:07.898Z,98847.25
2022-10-25T08:03:34.703Z,98849.56
2022-10-25T08:06:01.910Z,98849.44
2022-10-25T08:08:28.961Z,98851.13
2022-10-25T08:10:56.131Z,98853.56
2022-10-25T08:13:24.029Z,98862.41
2022-10-25T08:15:52.027Z,98864.28
2022-10-25T08:18:18.967Z,98856.72
2022-10-25T08:21:03.024Z,98849.59
2022-10-25T08:23:31.646Z,98849.59
2022-10-25T08:25:59.664Z,98842.16
2022-10-25T08:28:26.485Z,98841.88
2022-10-25T08:30:55.305Z,98837.75
2022-10-25T08:33:22.451Z,98834.91
2022-10-25T08:35:49.459Z,98840.03
2022-10-25T08:38:16.296Z,98828.19
2022-10-25T08:40:43.302Z,98833.59
2022-10-25T08:43:22.820Z,98837.91
2022-10-25T08:46:10.171Z,98827.63
2022-10-25T08:48:38.905Z,98827.47
2022-10-25T08:51:12.347Z,98823.06
2022-10-25T08:53:41.599Z,98812.63
2022-10-25T08:56:16.752Z,98817.94
2022-10-25T08:58:54.776Z,98818.19
2022-10-25T09:01:40.918Z,98821.06
2022-10-25T09:04:07.886Z,98824.47
2022-10-25T09:06:50.775Z,98817.75
2022-10-25T09:09:25.311Z,98820.47
2022-10-25T09:12:13.276Z,98815.94
2022-10-25T09:14:59.975Z,98822.63
2022-10-25T09:17:50.911Z,98824.59
2022-10-25T09:20:21.690Z,98818.59
2022-10-25T09:22:51.773Z,98821.16
2022-10-25T09:25:43.302Z,98826.19
2022-10-25T09:28:36.201Z,98831.31
2022-10-25T09:31:02.969Z,98834.06
2022-10-25T09:33:30.648Z,98821.03
2022-10-25T09:35:57.947Z,98837.59
2022-10-25T09:38:34.028Z,98836.28
2022-10-25T09:41:06.105Z,98832.44
2022-10-25T09:43:39.354Z,98836.56
2022-10-25T09:46:08.681Z,98842.25
2022-10-25T09:49:02.460Z,98840.09
2022-10-25T09:51:36.096Z,98853.94
2022-10-25T09:54:09.460Z,98853.50
2022-10-25T09:56:36.304Z,98849.34
2022-10-25T09:59:04.486Z,98851.75
2022-10-25T10:01:39.007Z,98843.31
2022-10-25T10:04:18.260Z,98841.69
2022-10-25T10:06:45.040Z,98847.41
2022-10-25T10:09:12.179Z,98841.66
2022-10-25T10:11:38.948Z,98841.91
2022-10-25T10:14:22.352Z,98841.31
2022-10-25T10:16:51.104Z,98836.44
2022-10-25T10:19:25.628Z,98836.84
2022-10-25T10:22:02.275Z,98841.72
2022-10-25T10:24:31.404Z,98839.38
2022-10-25T10:27:02.646Z,98842.81
2022-10-25T10:29:52.915Z,98839.47
2022-10-25T10:32:33.470Z,98836.28
2022-10-25T10:35:01.506Z,98843.00
2022-10-25T10:37:29.299Z,98831.09
2022-10-25T10:40:22.812Z,98829.47
2022-10-25T10:42:49.870Z,98829.00
2022-10-25T10:45:18.953Z,98827.69
2022-10-25T10:47:48.765Z,98830.94
2022-10-25T10:50:18.562Z,98827.94
2022-10-25T10:52:45.881Z,98831.19
2022-10-25T10:55:30.608Z,98828.31
2022-10-25T10:58:13.872Z,98817.81
2022-10-25T11:00:40.764Z,98827.34
2022-10-25T11:03:30.212Z,98828.63
2022-10-25T11:05:59.403Z,98829.16
2022-10-25T11:08:26.548Z,98830.72
2022-10-25T11:10:54.496Z,98825.81
2022-10-25T11:13:22.880Z,98835.53
2022-10-25T11:16:08.461Z,98823.63
2022-10-25T11:18:39.888Z,98834.75
2022-10-25T11:21:32.715Z,98828.13
2022-10-25T11:24:25.124Z,98831.38
2022-10-25T11:27:22.712Z,98822.06
2022-10-25T11:30:34.859Z,98825.03
2022-10-25T11:33:05.975Z,98827.44
2022-10-25T11:35:59.275Z,98826.97
2022-10-25T11:38:41.176Z,98825.44
2022-10-25T11:41:17.278Z,98832.28
2022-10-25T11:44:11.817Z,98820.22
2022-10-25T11:47:12.246Z,98828.91
2022-10-25T11:50:06.285Z,98825.03
2022-10-25T11:52:58.567Z,98826.94
2022-10-25T11:55:28.333Z,98827.81
2022-10-25T11:58:28.789Z,98823.72
2022-10-25T12:01:25.340Z,98822.72
2022-10-25T12:04:30.670Z,98831.28
2022-10-25T12:07:17.071Z,98829.75
2022-10-25T12:09:53.138Z,98822.09
2022-10-25T12:12:22.913Z,98822.78
2022-10-25T12:14:52.599Z,98825.34
2022-10-25T12:17:29.745Z,98817.06
2022-10-25T12:20:02.092Z,98819.63
2022-10-25T12:22:34.673Z,98822.88
2022-10-25T12:25:04.032Z,98822.88
2022-10-25T12:27:30.854Z,98830.06
2022-10-25T12:30:06.318Z,98831.56
2022-10-25T12:32:37.377Z,98834.66
2022-10-25T12:35:17.900Z,98825.63
2022-10-25T12:37:49.074Z,98823.59
2022-10-25T12:40:18.220Z,98824.88
2022-10-25T12:42:51.976Z,98832.88
2022-10-25T12:45:21.916Z,98827.94
2022-10-25T12:48:26.555Z,98834.09
2022-10-25T12:51:18.998Z,98828.13
2022-10-25T12:53:45.862Z,98834.28
2022-10-25T12:56:28.342Z,98839.25
2022-10-25T12:59:07.061Z,98844.53
2022-10-25T13:02:02.473Z,98838.91
2022-10-25T13:04:47.558Z,98825.97
2022-10-25T13:07:14.592Z,98826.81
2022-10-25T13:09:41.397Z,98824.91
2022-10-25T13:12:30.680Z,98831.09
2022-10-25T13:14:58.474Z,98825.47
2022-10-25T13:17:25.481Z,98820.00
2022-10-25T13:20:15.527Z,98830.41
2022-10-25T13:22:43.303Z,98834.69
2022-10-25T13:25:13.100Z,98830.94
2022-10-25T13:28:01.011Z,98835.38
2022-10-25T13:30:31.969Z,98836.41
2022-10-25T13:33:18.950Z,98831.09
2022-10-25T13:35:48.708Z,98839.13
2022-10-25T13:38:44.888Z,98830.94
2022-10-25T13:41:16.030Z,98842.88
2022-10-25T13:44:02.686Z,98838.09
2022-10-25T13:46:39.785Z,98834.19
2022-10-25T13:49:32.129Z,98836.03
2022-10-25T13:52:05.376Z,98840.50
2022-10-25T13:54:43.536Z,98837.75
2022-10-25T13:57:44.347Z,98842.38
2022-10-25T14:00:26.704Z,98846.63
2022-10-25T14:03:09.046Z,98845.63
2022-10-25T14:05:55.677Z,98854.66
2022-10-25T14:08:33.280Z,98850.03
2022-10-25T14:11:03.952Z,98850.91
2022-10-25T14:13:36.599Z,98856.22
2022-10-25T14:16:04.311Z,98862.50
2022-10-25T14:18:31.111Z,98857.22
2022-10-25T14:21:05.355Z,98858.78
2022-10-25T14:23:34.639Z,98866.97
2022-10-25T14:26:02.575Z,98873.44
2022-10-25T14:28:30.808Z,98870.53
2022-10-25T14:31:07.593Z,98877.00
2022-10-25T14:33:42.229Z,98871.88
2022-10-25T14:36:25.189Z,98872.75
2022-10-25T14:38:54.038Z,98871.03
2022-10-25T14:41:26.106Z,98870.34
2022-10-25T14:43:53.053Z,98878.53
2022-10-25T14:46:21.885Z,98876.97
2022-10-25T14:48:49.632Z,98873.41
2022-10-25T14:51:22.155Z,98880.06
2022-10-25T14:53:56.877Z,98881.06
2022-10-25T14:56:26.942Z,98881.22
2022-10-25T14:58:53.810Z,98875.78
2022-10-25T15:01:21.834Z,98879.00
2022-10-25T15:03:50.968Z,98884.44
2022-10-25T15:06:18.819Z,98882.06
2022-10-25T15:08:51.454Z,98891.94
2022-10-25T15:11:19.414Z,98883.25
2022-10-25T15:13:50.072Z,98883.41
2022-10-25T15:16:27.752Z,98886.31
2022-10-25T15:19:11.740Z,98887.31
2022-10-25T15:21:45.868Z,98892.94
2022-10-25T15:24:13.855Z,98893.97
2022-10-25T15:26:55.109Z,98900.59
2022-10-25T15:29:32.132Z,98893.59
2022-10-25T15:32:00.507Z,98899.38
2022-10-25T15:34:27.436Z,98898.69
2022-10-25T15:36:54.563Z,98899.88
2022-10-25T15:39:32.556Z,98892.34
2022-10-25T15:41:59.673Z,98899.78
2022-10-25T15:44:26.448Z,98904.72
2022-10-25T15:46:53.431Z,98911.53
2022-10-25T15:49:20.250Z,98908.28
2022-10-25T15:51:47.355Z,98909.91
2022-10-25T15:54:18.764Z,98917.56
2022-10-25T15:56:45.828Z,98917.88
2022-10-25T15:59:12.745Z,98920.75
2022-10-25T16:01:44.835Z,98921.13
2022-10-25T16:04:15.761Z,98916.13
2022-10-25T16:06:43.320Z,98917.28
2022-10-25T16:09:10.703Z,98925.78
2022-10-25T16:11:38.902Z,98922.53
2022-10-25T16:14:07.811Z,98927.44
2022-10-25T16:16:40.265Z,98922.31
2022-10-25T16:19:15.132Z,98928.06
2022-10-25T16:21:42.364Z,98924.97
2022-10-25T16:24:09.407Z,98920.72
2022-10-25T16:26:42.996Z,98926.63
2022-10-25T16:29:15.643Z,98933.41
2022-10-25T16:31:43.132Z,98937.44
2022-10-25T16:34:11.173Z,98940.47
2022-10-25T16:36:38.303Z,98938.94
2022-10-25T16:39:06.354Z,98939.41
2022-10-25T16:41:33.466Z,98946.88
2022-10-25T16:44:00.288Z,98941.00
2022-10-25T16:46:27.334Z,98945.91
2022-10-25T16:48:55.950Z,98944.50
2022-10-25T16:51:25.850Z,98949.56
2022-10-25T16:53:52.636Z,98949.03
2022-10-25T16:56:19.616Z,98953.22
2022-10-25T16:58:46.390Z,98950.97
2022-10-25T17:01:17.520Z,98947.53
2022-10-25T17:03:44.595Z,98963.13
2022-10-25T17:06:28.761Z,98961.75
2022-10-25T17:08:58.352Z,98966.66
2022-10-25T17:11:25.366Z,98962.34
2022-10-25T17:13:52.144Z,98965.53
2022-10-25T17:16:19.199Z,98966.69
2022-10-25T17:18:46.002Z,98969.72
2022-10-25T17:21:15.106Z,98979.22
2022-10-25T17:23:42.028Z,98981.53
2022-10-25T17:26:11.465Z,98989.50
2022-10-25T17:28:43.033Z,98988.50
2022-10-25T17:31:12.532Z,98990.69
2022-10-25T17:33:40.390Z,98986.38
2022-10-25T17:36:15.115Z,98981.72
2022-10-25T17:38:42.113Z,98988.28
2022-10-25T17:41:09.623Z,98979.59
2022-10-25T17:43:37.223Z,98980.03
2022-10-25T17:46:06.820Z,98991.06
2022-10-25T17:48:33.726Z,98990.63
2022-10-25T17:51:05.201Z,98995.38
2022-10-25T17:53:32.069Z,99003.69
2022-10-25T17:55:59.339Z,99004.09
2022-10-25T17:58:26.139Z,99000.66
2022-10-25T18:00:54.570Z,99008.97
2022-10-25T18:03:21.516Z,99002.13
2022-10-25T18:05:48.539Z,99007.88
2022-10-25T18:08:15.736Z,99001.44
2022-10-25T18:10:43.041Z,99001.84
2022-10-25T18:13:09.849Z,99000.41
2022-10-25T18:15:38.310Z,99010.28
2022-10-25T18:18:05.137Z,99005.44
2022-10-25T18:20:32.366Z,99009.75
2022-10-25T18:22:59.108Z,99011.50
2022-10-25T18:25:26.164Z,99006.47
2022-10-25T18:27:52.937Z,99008.50
2022-10-25T18:30:19.986Z,99005.22
2022-10-25T18:32:46.749Z,99003.50
2022-10-25T18:35:13.861Z,99005.63
2022-10-25T18:37:40.594Z,98997.78
2022-10-25T18:40:08.420Z,99004.38
2022-10-25T18:42:35.857Z,99000.91
2022-10-25T18:45:03.157Z,99003.63
2022-10-25T18:47:29.997Z,98995.47
2022-10-25T18:49:57.013Z,98999.50
2022-10-25T18:52:24.683Z,99005.50
2022-10-25T18:54:53.451Z,99006.06
2022-10-25T18:57:20.275Z,99001.66
2022-10-25T18:59:47.660Z,99015.94
2022-10-25T19:02:14.440Z,99010.50
2022-10-25T19:04:41.745Z,99004.50
2022-10-25T19:07:08.499Z,99019.66
2022-10-25T19:09:35.579Z,99012.66
2022-10-25T19:12:02.377Z,99014.81
2022-10-25T19:14:29.380Z,99014.94
2022-10-25T19:16:56.154Z,99017.81
2022-10-25T19:19:23.194Z,99017.94
2022-10-25T19:21:50.085Z,99023.66
2022-10-25T19:24:17.353Z,99023.94
2022-10-25T19:26:44.884Z,99030.34
2022-10-25T19:29:11.943Z,99021.94
2022-10-25T19:31:38.685Z,99033.06
2022-10-25T19:34:05.706Z,99019.50
2022-10-25T19:36:32.797Z,99017.81
2022-10-25T19:39:00.203Z,99012.50
2022-10-25T19:41:27.027Z,99020.53
2022-10-25T19:43:56.397Z,99033.06
2022-10-25T19:46:23.345Z,99025.09
2022-10-25T19:48:50.358Z,99022.66
2022-10-25T19:51:18.961Z,99029.38
2022-10-25T19:53:46.117Z,99035.22
2022-10-25T19:56:17.834Z,99030.66
2022-10-25T19:58:45.046Z,99026.94
2022-10-25T20:01:13.815Z,99036.09
2022-10-25T20:03:40.961Z,99035.38
2022-10-25T20:06:12.612Z,99041.38
2022-10-25T20:08:39.960Z,99038.66
2022-10-25T20:11:07.228Z,99044.22
2022-10-25T20:13:34.340Z,99034.31
2022-10-25T20:16:01.196Z,99034.91
2022-10-25T20:18:33.199Z,99036.59
2022-10-25T20:21:01.665Z,99049.44
2022-10-25T20:23:28.964Z,99050.44
2022-10-25T20:25:55.766Z,99054.44
2022-10-25T20:28:22.814Z,99051.00
2022-10-25T20:30:49.965Z,99047.72
2022-10-25T20:33:17.315Z,99043.16
2022-10-25T20:35:46.946Z,99048.72
2022-10-25T20:38:13.981Z,99047.13
2022-10-25T20:40:40.815Z,99045.44
2022-10-25T20:43:07.917Z,99052.84
2022-10-25T20:45:34.705Z,99053.69
2022-10-25T20:48:01.783Z,99051.41
2022-10-25T20:50:29.316Z,99051.41
2022-10-25T20:53:09.751Z,99060.38
2022-10-25T20:55:37.236Z,99055.25
2022-10-25T20:58:04.678Z,99055.41
2022-10-25T21:00:32.472Z,99052.81
2022-10-25T21:02:59.830Z,99052.09
2022-10-25T21:05:26.717Z,99058.25
2022-10-25T21:07:53.694Z,99062.06
2022-10-25T21:10:20.462Z,99051.66
2022-10-25T21:12:47.484Z,99054.06
2022-10-25T21:15:14.349Z,99056.06
2022-10-25T21:17:41.376Z,99059.63
2022-10-25T21:20:08.689Z,99048.06
2022-10-25T21:22:35.684Z,99057.09
2022-10-25T21:25:02.463Z,99053.19
2022-10-25T21:27:29.624Z,99056.47
2022-10-25T21:29:56.400Z,99053.75
2022-10-25T21:32:23.412Z,99053.75
2022-10-25T21:34:50.165Z,99049.50
2022-10-25T21:37:17.257Z,99042.19
2022-10-25T21:39:45.835Z,99052.47
2022-10-25T21:42:12.845Z,99058.03
2022-10-25T21:44:39.673Z,99058.75
2022-10-25T21:47:06.660Z,99053.44
2022-10-25T21:49:33.455Z,99060.03
2022-10-25T21:52:00.512Z,99053.88
2022-10-25T21:54:28.116Z,99054.16
2022-10-25T21:56:55.099Z,99050.44
2022-10-25T21:59:22.289Z,99055.13
2022-10-25T22:01:49.368Z,99052.56
2022-10-25T22:04:16.327Z,99062.56
2022-10-25T22:06:43.324Z,99059.13
2022-10-25T22:09:10.076Z,99054.81
2022-10-25T22:11:38.122Z,99056.69
2022-10-25T22:14:06.362Z,99052.50
2022-10-25T22:16:33.666Z,99048.22
2022-10-25T22:19:03.106Z,99053.91
2022-10-25T22:21:35.517Z,99051.34
2022-10-25T22:24:03.056Z,99056.31
2022-10-25T22:26:30.060Z,99059.03
2022-10-25T22:28:57.896Z,99072.44
2022-10-25T22:31:25.667Z,99066.19
2022-10-25T22:33:54.731Z,99062.13
2022-10-25T22:36:22.316Z,99063.00
2022-10-25T22:38:49.064Z,99066.25
2022-10-25T22:41:18.176Z,99072.78
2022-10-25T22:43:45.167Z,99074.50
2022-10-25T22:46:13.712Z,99076.63
2022-10-25T22:48:41.308Z,99084.56
2022-10-25T22:51:08.431Z,99075.47
2022-10-25T22:53:35.879Z,99078.28
2022-10-25T22:56:07.647Z,99082.56
2022-10-25T22:58:34.871Z,99085.50
2022-10-25T23:03:40.622Z,99084.19
2022-10-25T23:06:11.691Z,99086.19
2022-10-25T23:08:38.503Z,99092.25
2022-10-25T23:11:26.659Z,99091.88
2022-10-25T23:13:53.455Z,99088.44
2022-10-25T23:16:20.799Z,99088.81
2022-10-25T23:18:47.655Z,99087.22
2022-10-25T23:21:19.708Z,99083.78
2022-10-25T23:23:46.737Z,99088.09
2022-10-25T23:26:17.240Z,99079.91
2022-10-25T23:28:44.110Z,99086.63
2022-10-25T23:31:11.775Z,99088.34
2022-10-25T23:33:39.047Z,99086.03
2022-10-25T23:36:16.120Z,99090.59
2022-10-25T23:38:43.534Z,99091.84
2022-10-25T23:41:10.759Z,99088.28
2022-10-25T23:43:37.635Z,99091.13
2022-10-25T23:46:05.142Z,99090.53
2022-10-25T23:48:31.975Z,99095.94
2022-10-25T23:53:33.806Z,99094.22
2022-10-25T23:56:01.254Z,99092.75
2022-10-25T23:58:28.046Z,99097.31
